createdAt,value
2019-05-26T00:01:31.219Z,95204.38
2019-05-26T00:03:57.217Z,95206.20
2019-05-26T00:06:23.232Z,95207.54
2019-05-26T00:08:49.232Z,95204.38
2019-05-26T00:11:15.255Z,95205.80
2019-05-26T00:13:41.268Z,95212.45
2019-05-26T00:16:07.263Z,95213.31
2019-05-26T00:18:33.626Z,95212.45
2019-05-26T00:20:59.277Z,95207.98
2019-05-26T00:23:25.303Z,95206.66
2019-05-26T00:25:51.297Z,95208.45
2019-05-26T00:28:17.395Z,95205.80
2019-05-26T00:30:43.306Z,95207.54
2019-05-26T00:33:09.331Z,95216.86
2019-05-26T00:35:35.358Z,95211.11
2019-05-26T00:38:01.338Z,95215.97
2019-05-26T00:40:27.354Z,95211.98
2019-05-26T00:42:53.366Z,95213.36
2019-05-26T00:45:19.363Z,95213.78
2019-05-26T00:47:45.388Z,95215.97
2019-05-26T00:50:11.389Z,95209.78
2019-05-26T00:52:37.395Z,95209.78
2019-05-26T00:55:03.424Z,95220.84
2019-05-26T00:57:29.419Z,95218.63
2019-05-26T00:59:55.442Z,95217.85
2019-05-26T01:02:21.435Z,95220.94
2019-05-26T01:04:47.464Z,95220.94
2019-05-26T01:07:13.458Z,95220.02
2019-05-26T01:09:39.505Z,95218.27
2019-05-26T01:12:05.518Z,95223.09
2019-05-26T01:14:31.527Z,95223.59
2019-05-26T01:16:57.561Z,95221.34
2019-05-26T01:19:23.563Z,95223.09
2019-05-26T01:21:49.582Z,95230.66
2019-05-26T01:24:15.579Z,95228.83
2019-05-26T01:26:41.605Z,95230.66
2019-05-26T01:29:07.609Z,95229.33
2019-05-26T01:31:33.604Z,95231.16
2019-05-26T01:33:59.621Z,95234.66
2019-05-26T01:36:25.616Z,95230.78
2019-05-26T01:38:51.634Z,95232.50
2019-05-26T01:41:17.630Z,95239.56
2019-05-26T01:43:43.645Z,95226.25
2019-05-26T01:46:09.640Z,95227.09
2019-05-26T01:48:35.675Z,95222.27
2019-05-26T01:51:01.689Z,95221.34
2019-05-26T01:53:27.686Z,95216.14
2019-05-26T01:55:53.706Z,95209.87
2019-05-26T01:58:19.697Z,95215.61
2019-05-26T02:00:45.702Z,95213.48
2019-05-26T02:03:11.710Z,95210.81
2019-05-26T02:05:37.711Z,95210.81
2019-05-26T02:08:03.736Z,95207.73
2019-05-26T02:10:29.748Z,95203.74
2019-05-26T02:12:55.743Z,95207.73
2019-05-26T02:15:21.844Z,95205.08
2019-05-26T02:17:47.842Z,95205.08
2019-05-26T02:20:13.861Z,95209.48
2019-05-26T02:22:39.852Z,95212.95
2019-05-26T02:25:05.891Z,95213.14
2019-05-26T02:27:31.879Z,95216.94
2019-05-26T02:29:57.876Z,95218.80
2019-05-26T02:32:23.892Z,95221.05
2019-05-26T02:34:49.895Z,95214.81
2019-05-26T02:37:15.921Z,95214.81
2019-05-26T02:39:41.932Z,95220.13
2019-05-26T02:42:07.928Z,95213.97
2019-05-26T02:44:33.953Z,95218.80
2019-05-26T02:46:59.944Z,95221.46
2019-05-26T02:49:25.947Z,95225.84
2019-05-26T02:51:51.966Z,95227.70
2019-05-26T02:54:17.997Z,95223.79
2019-05-26T02:56:44.032Z,95228.12
2019-05-26T02:59:10.017Z,95225.45
2019-05-26T03:01:36.031Z,95218.38
2019-05-26T03:04:02.025Z,95223.70
2019-05-26T03:06:28.066Z,95221.55
2019-05-26T03:08:54.060Z,95219.72
2019-05-26T03:11:20.060Z,95224.63
2019-05-26T03:13:46.082Z,95223.70
2019-05-26T03:16:12.079Z,95229.03
2019-05-26T03:18:38.084Z,95229.95
2019-05-26T03:21:04.100Z,95231.28
2019-05-26T03:23:30.090Z,95232.19
2019-05-26T03:25:56.116Z,95234.35
2019-05-26T03:28:22.168Z,95233.02
2019-05-26T03:30:48.161Z,95236.59
2019-05-26T03:33:14.189Z,95235.27
2019-05-26T03:35:40.181Z,95239.68
2019-05-26T03:38:06.196Z,95237.93
2019-05-26T03:40:32.208Z,95239.68
2019-05-26T03:42:58.229Z,95240.09
2019-05-26T03:45:24.234Z,95242.84
2019-05-26T03:47:50.228Z,95238.84
2019-05-26T03:50:16.247Z,95243.25
2019-05-26T03:52:42.253Z,95246.33
2019-05-26T03:55:08.278Z,95248.16
2019-05-26T03:57:34.272Z,95248.08
2019-05-26T04:00:00.300Z,95241.92
2019-05-26T04:02:26.800Z,95243.25
2019-05-26T04:04:52.811Z,95249.08
2019-05-26T04:07:18.816Z,95251.24
2019-05-26T04:10:03.161Z,95251.66
2019-05-26T04:12:10.967Z,95252.07
2019-05-26T04:14:36.964Z,95250.83
2019-05-26T04:17:03.027Z,95255.65
2019-05-26T04:19:29.036Z,95253.06
2019-05-26T04:21:55.066Z,95259.22
2019-05-26T04:24:21.060Z,95252.98
2019-05-26T04:26:47.061Z,95248.58
2019-05-26T04:29:13.098Z,95251.73
2019-05-26T04:31:39.085Z,95251.73
2019-05-26T04:34:05.101Z,95246.41
2019-05-26T04:36:31.123Z,95249.91
2019-05-26T04:38:57.118Z,95251.73
2019-05-26T04:41:23.135Z,95257.48
2019-05-26T04:43:49.138Z,95260.22
2019-05-26T04:46:15.132Z,95256.64
2019-05-26T04:48:41.149Z,95254.81
2019-05-26T04:51:07.147Z,95248.16
2019-05-26T04:53:33.169Z,95248.16
2019-05-26T04:55:59.193Z,95252.23
2019-05-26T04:58:25.205Z,95255.31
2019-05-26T05:00:51.206Z,95254.52
2019-05-26T05:03:17.224Z,95257.56
2019-05-26T05:05:43.240Z,95261.17
2019-05-26T05:08:09.235Z,95267.30
2019-05-26T05:10:42.350Z,95259.31
2019-05-26T05:13:01.261Z,95260.22
2019-05-26T05:15:27.281Z,95264.22
2019-05-26T05:17:53.287Z,95265.55
2019-05-26T05:20:19.303Z,95260.22
2019-05-26T05:22:45.309Z,95260.22
2019-05-26T05:25:14.952Z,95264.22
2019-05-26T05:27:37.316Z,95263.72
2019-05-26T05:30:03.414Z,95251.73
2019-05-26T05:32:32.724Z,95255.73
2019-05-26T05:34:55.392Z,95247.86
2019-05-26T05:37:25.076Z,95244.59
2019-05-26T05:39:47.432Z,95250.83
2019-05-26T05:42:13.460Z,95251.24
2019-05-26T05:44:39.467Z,95242.75
2019-05-26T05:47:05.493Z,95246.22
2019-05-26T05:49:31.550Z,95245.80
2019-05-26T05:51:57.546Z,95247.55
2019-05-26T05:54:23.547Z,95250.63
2019-05-26T05:56:49.573Z,95249.80
2019-05-26T05:59:15.563Z,95255.95
2019-05-26T06:01:41.627Z,95258.56
2019-05-26T06:04:07.630Z,95250.74
2019-05-26T06:06:33.632Z,95257.12
2019-05-26T06:08:59.652Z,95258.95
2019-05-26T06:11:25.676Z,95256.28
2019-05-26T06:13:51.752Z,95258.87
2019-05-26T06:16:17.779Z,95256.20
2019-05-26T06:18:43.804Z,95244.64
2019-05-26T06:21:09.812Z,95253.55
2019-05-26T06:23:36.976Z,95251.30
2019-05-26T06:26:01.882Z,95249.85
2019-05-26T06:28:27.873Z,95252.52
2019-05-26T06:30:53.890Z,95256.92
2019-05-26T06:33:19.888Z,95252.43
2019-05-26T06:35:45.902Z,95248.94
2019-05-26T06:38:11.917Z,95249.36
2019-05-26T06:40:38.142Z,95246.69
2019-05-26T06:43:04.295Z,95249.77
2019-05-26T06:45:30.293Z,95250.57
2019-05-26T06:47:56.529Z,95246.58
2019-05-26T06:50:22.564Z,95246.14
2019-05-26T06:52:48.592Z,95250.91
2019-05-26T06:55:14.584Z,95249.66
2019-05-26T06:57:40.649Z,95253.65
2019-05-26T07:00:06.604Z,95254.48
2019-05-26T07:02:32.611Z,95258.36
2019-05-26T07:04:58.719Z,95253.88
2019-05-26T07:07:24.732Z,95249.88
2019-05-26T07:09:50.756Z,95260.53
2019-05-26T07:12:16.942Z,95262.69
2019-05-26T07:14:42.944Z,95262.58
2019-05-26T07:17:09.067Z,95262.16
2019-05-26T07:19:35.063Z,95254.70
2019-05-26T07:22:01.067Z,95261.36
2019-05-26T07:24:29.422Z,95251.63
2019-05-26T07:26:53.213Z,95248.47
2019-05-26T07:29:19.240Z,95256.45
2019-05-26T07:31:45.534Z,95251.13
2019-05-26T07:34:11.554Z,95247.52
2019-05-26T07:36:37.549Z,95249.77
2019-05-26T07:39:03.610Z,95252.95
2019-05-26T07:41:29.654Z,95255.00
2019-05-26T07:43:55.681Z,95249.80
2019-05-26T07:46:21.710Z,95252.45
2019-05-26T07:48:47.840Z,95253.37
2019-05-26T07:51:13.837Z,95250.52
2019-05-26T07:53:39.861Z,95246.97
2019-05-26T07:56:05.852Z,95250.53
2019-05-26T07:58:31.975Z,95258.63
2019-05-26T08:00:57.978Z,95261.17
2019-05-26T08:03:23.994Z,95258.88
2019-05-26T08:05:50.020Z,95251.47
2019-05-26T08:08:16.027Z,95247.17
2019-05-26T08:10:42.046Z,95247.17
2019-05-26T08:13:08.047Z,95245.00
2019-05-26T08:15:34.133Z,95250.75
2019-05-26T08:18:00.167Z,95250.25
2019-05-26T08:20:26.161Z,95249.75
2019-05-26T08:22:52.362Z,95246.06
2019-05-26T08:25:18.435Z,95250.97
2019-05-26T08:27:44.992Z,95253.85
2019-05-26T08:30:11.033Z,95245.36
2019-05-26T08:32:37.008Z,95245.25
2019-05-26T08:35:03.086Z,95248.74
2019-05-26T08:37:29.183Z,95241.59
2019-05-26T08:39:55.305Z,95236.56
2019-05-26T08:42:28.760Z,95231.04
2019-05-26T08:44:47.344Z,95228.88
2019-05-26T08:47:13.448Z,95227.88
2019-05-26T08:49:39.498Z,95226.55
2019-05-26T08:52:05.545Z,95229.11
2019-05-26T08:54:31.527Z,95222.45
2019-05-26T08:56:57.547Z,95222.04
2019-05-26T08:59:23.880Z,95222.87
2019-05-26T09:01:49.876Z,95218.46
2019-05-26T09:04:15.941Z,95218.27
2019-05-26T09:06:41.964Z,95214.78
2019-05-26T09:09:07.979Z,95218.78
2019-05-26T09:11:34.107Z,95224.52
2019-05-26T09:14:00.149Z,95222.70
2019-05-26T09:16:26.143Z,95225.66
2019-05-26T09:18:52.147Z,95229.16
2019-05-26T09:21:18.173Z,95230.37
2019-05-26T09:23:44.233Z,95227.92
2019-05-26T09:26:10.252Z,95223.09
2019-05-26T09:28:36.270Z,95224.76
2019-05-26T09:31:02.317Z,95222.52
2019-05-26T09:33:28.330Z,95219.44
2019-05-26T09:35:54.348Z,95221.56
2019-05-26T09:38:20.367Z,95216.23
2019-05-26T09:40:46.378Z,95215.32
2019-05-26T09:43:16.106Z,95212.66
2019-05-26T09:45:38.490Z,95215.32
2019-05-26T09:48:04.482Z,95206.65
2019-05-26T09:50:30.493Z,95207.05
2019-05-26T09:52:56.492Z,95208.59
2019-05-26T09:55:22.562Z,95197.61
2019-05-26T09:57:48.577Z,95192.89
2019-05-26T10:00:16.186Z,95196.59
2019-05-26T10:02:40.650Z,95193.22
2019-05-26T10:05:06.658Z,95187.35
2019-05-26T10:07:32.787Z,95187.97
2019-05-26T10:09:58.788Z,95186.64
2019-05-26T10:12:24.808Z,95186.34
2019-05-26T10:14:50.810Z,95177.10
2019-05-26T10:17:16.808Z,95176.60
2019-05-26T10:19:42.830Z,95175.88
2019-05-26T10:22:08.825Z,95174.55
2019-05-26T10:24:34.972Z,95176.88
2019-05-26T10:27:00.964Z,95174.64
2019-05-26T10:29:26.998Z,95176.08
2019-05-26T10:31:52.994Z,95173.50
2019-05-26T10:34:19.017Z,95173.92
2019-05-26T10:36:45.056Z,95175.87
2019-05-26T10:39:11.061Z,95169.71
2019-05-26T10:41:37.074Z,95173.28
2019-05-26T10:44:03.083Z,95166.75
2019-05-26T10:46:29.094Z,95166.75
2019-05-26T10:48:55.094Z,95167.25
2019-05-26T10:51:21.107Z,95165.50
2019-05-26T10:53:47.139Z,95162.03
2019-05-26T10:56:13.152Z,95161.20
2019-05-26T10:58:39.243Z,95164.70
2019-05-26T11:01:05.175Z,95163.45
2019-05-26T11:03:31.190Z,95163.95
2019-05-26T11:05:57.215Z,95159.57
2019-05-26T11:08:23.216Z,95160.98
2019-05-26T11:10:49.321Z,95159.95
2019-05-26T11:13:15.345Z,95155.66
2019-05-26T11:15:41.348Z,95150.33
2019-05-26T11:18:07.369Z,95148.59
2019-05-26T11:20:33.402Z,95142.84
2019-05-26T11:22:59.387Z,95145.51
2019-05-26T11:25:25.386Z,95140.72
2019-05-26T11:27:51.414Z,95132.31
2019-05-26T11:30:17.414Z,95134.06
2019-05-26T11:32:43.439Z,95134.56
2019-05-26T11:35:09.442Z,95128.02
2019-05-26T11:37:35.451Z,95134.56
2019-05-26T11:40:01.479Z,95128.31
2019-05-26T11:42:27.473Z,95132.81
2019-05-26T11:44:53.500Z,95130.68
2019-05-26T11:47:19.489Z,95126.16
2019-05-26T11:49:45.507Z,95124.52
2019-05-26T11:52:11.503Z,95121.86
2019-05-26T11:54:37.503Z,95123.19
2019-05-26T11:57:03.570Z,95121.86
2019-05-26T11:59:29.539Z,95117.45
2019-05-26T12:01:55.560Z,95113.16
2019-05-26T12:04:21.570Z,95116.23
2019-05-26T12:06:47.631Z,95116.73
2019-05-26T12:09:13.622Z,95120.31
2019-05-26T12:11:39.633Z,95119.39
2019-05-26T12:14:05.761Z,95118.98
2019-05-26T12:16:31.764Z,95119.39
2019-05-26T12:18:57.802Z,95114.98
2019-05-26T12:21:23.818Z,95117.65
2019-05-26T12:23:49.812Z,95113.66
2019-05-26T12:26:15.884Z,95110.99
2019-05-26T12:28:41.899Z,95110.16
2019-05-26T12:31:07.946Z,95107.50
2019-05-26T12:33:33.947Z,95097.38
2019-05-26T12:35:59.956Z,95101.38
2019-05-26T12:38:25.975Z,95096.47
2019-05-26T12:40:51.989Z,95099.13
2019-05-26T12:43:18.009Z,95096.77
2019-05-26T12:45:44.005Z,95091.25
2019-05-26T12:48:10.023Z,95081.52
2019-05-26T12:50:36.028Z,95086.55
2019-05-26T12:53:02.022Z,95083.14
2019-05-26T12:55:28.044Z,95086.22
2019-05-26T12:57:54.044Z,95087.47
2019-05-26T13:00:20.064Z,95083.27
2019-05-26T13:02:46.209Z,95079.08
2019-05-26T13:05:12.097Z,95074.55
2019-05-26T13:07:38.125Z,95073.93
2019-05-26T13:10:04.165Z,95074.55
2019-05-26T13:12:30.183Z,95068.72
2019-05-26T13:15:05.632Z,95071.89
2019-05-26T13:17:22.270Z,95070.14
2019-05-26T13:19:48.304Z,95068.92
2019-05-26T13:22:14.302Z,95063.09
2019-05-26T13:24:40.322Z,95065.42
2019-05-26T13:27:06.338Z,95061.23
2019-05-26T13:29:32.354Z,95065.94
2019-05-26T13:31:58.375Z,95066.77
2019-05-26T13:34:24.372Z,95065.36
2019-05-26T13:36:50.407Z,95062.78
2019-05-26T13:39:16.403Z,95060.61
2019-05-26T13:41:42.417Z,95063.28
2019-05-26T13:44:08.448Z,95061.56
2019-05-26T13:46:34.448Z,95056.03
2019-05-26T13:49:00.468Z,95058.78
2019-05-26T13:51:26.525Z,95062.69
2019-05-26T13:53:52.516Z,95052.95
2019-05-26T13:56:18.537Z,95053.37
2019-05-26T13:58:44.534Z,95048.84
2019-05-26T14:01:10.646Z,95052.42
2019-05-26T14:03:36.638Z,95046.18
2019-05-26T14:06:02.831Z,95048.64
2019-05-26T14:08:28.787Z,95046.72
2019-05-26T14:10:57.265Z,95048.97
2019-05-26T14:13:28.631Z,95050.39
2019-05-26T14:15:55.583Z,95050.52
2019-05-26T14:18:24.258Z,95048.77
2019-05-26T14:20:52.058Z,95049.98
2019-05-26T14:23:19.231Z,95046.20
2019-05-26T14:25:46.153Z,95048.16
2019-05-26T14:28:14.410Z,95051.23
2019-05-26T14:30:42.615Z,95051.62
2019-05-26T14:33:10.356Z,95055.61
2019-05-26T14:35:38.233Z,95051.23
2019-05-26T14:38:05.579Z,95047.13
2019-05-26T14:40:32.228Z,95049.38
2019-05-26T14:42:59.989Z,95044.88
2019-05-26T14:45:27.518Z,95050.91
2019-05-26T14:47:54.096Z,95051.55
2019-05-26T14:50:24.469Z,95050.41
2019-05-26T14:52:52.173Z,95046.42
2019-05-26T14:55:18.893Z,95050.41
2019-05-26T14:57:46.343Z,95045.59
2019-05-26T15:00:14.345Z,95041.89
2019-05-26T15:02:41.010Z,95047.83
2019-05-26T15:05:09.917Z,95041.17
2019-05-26T15:07:38.265Z,95039.84
2019-05-26T15:10:07.363Z,95040.67
2019-05-26T15:12:36.051Z,95041.89
2019-05-26T15:15:02.478Z,95050.91
2019-05-26T15:17:28.924Z,95046.83
2019-05-26T15:20:07.313Z,95046.30
2019-05-26T15:22:42.269Z,95049.88
2019-05-26T15:25:09.043Z,95047.63
2019-05-26T15:27:38.570Z,95044.55
2019-05-26T15:30:10.065Z,95048.55
2019-05-26T15:32:38.455Z,95045.68
2019-05-26T15:35:06.608Z,95043.84
2019-05-26T15:37:34.653Z,95040.77
2019-05-26T15:40:03.274Z,95041.19
2019-05-26T15:42:31.213Z,95042.52
2019-05-26T15:44:58.699Z,95046.63
2019-05-26T15:47:26.023Z,95049.17
2019-05-26T15:50:00.572Z,95047.94
2019-05-26T15:52:30.193Z,95048.89
2019-05-26T15:54:56.587Z,95049.59
2019-05-26T15:57:24.181Z,95047.02
2019-05-26T15:59:54.531Z,95041.70
2019-05-26T16:02:30.048Z,95047.94
2019-05-26T16:04:59.196Z,95048.77
2019-05-26T16:07:26.233Z,95054.52
2019-05-26T16:09:53.953Z,95055.34
2019-05-26T16:15:07.608Z,95057.27
2019-05-26T16:20:23.294Z,95058.80
2019-05-26T16:22:50.679Z,95059.63
2019-05-26T16:25:17.910Z,95059.94
2019-05-26T16:27:52.266Z,95067.30
2019-05-26T16:30:21.159Z,95066.92
2019-05-26T16:32:52.383Z,95063.84
2019-05-26T16:35:18.702Z,95062.39
2019-05-26T16:37:47.237Z,95070.80
2019-05-26T16:40:14.565Z,95073.58
2019-05-26T16:42:43.664Z,95076.63
2019-05-26T16:45:10.398Z,95078.91
2019-05-26T16:47:36.889Z,95077.58
2019-05-26T16:50:02.965Z,95081.78
2019-05-26T16:52:29.247Z,95080.33
2019-05-26T16:54:55.426Z,95080.03
2019-05-26T16:57:23.799Z,95073.99
2019-05-26T16:59:50.900Z,95083.70
2019-05-26T17:02:19.243Z,95083.61
2019-05-26T17:04:43.654Z,95086.58
2019-05-26T17:07:10.193Z,95088.02
2019-05-26T17:09:36.718Z,95094.06
2019-05-26T17:12:14.249Z,95098.98
2019-05-26T17:14:41.827Z,95098.56
2019-05-26T17:17:14.552Z,95093.65
2019-05-26T17:19:38.118Z,95098.56
2019-05-26T17:22:04.360Z,95091.82
2019-05-26T17:24:31.151Z,95092.32
2019-05-26T17:26:58.536Z,95092.73
2019-05-26T17:29:24.941Z,95095.19
2019-05-26T17:31:51.808Z,95093.77
2019-05-26T17:34:21.126Z,95094.69
2019-05-26T17:36:56.423Z,95094.69
2019-05-26T17:39:24.281Z,95096.02
2019-05-26T17:41:52.294Z,95096.94
2019-05-26T17:44:19.033Z,95096.94
2019-05-26T17:46:46.595Z,95097.95
2019-05-26T17:49:16.912Z,95093.23
2019-05-26T17:51:44.049Z,95097.56
2019-05-26T17:54:14.300Z,95095.90
2019-05-26T17:56:40.745Z,95097.35
2019-05-26T17:59:07.369Z,95099.48
2019-05-26T18:01:33.807Z,95098.06
2019-05-26T18:04:01.462Z,95092.32
2019-05-26T18:06:30.802Z,95097.95
2019-05-26T18:08:58.723Z,95101.86
2019-05-26T18:11:24.713Z,95099.49
2019-05-26T18:13:51.978Z,95104.31
2019-05-26T18:16:18.079Z,95108.23
2019-05-26T18:18:44.026Z,95116.11
2019-05-26T18:21:10.022Z,95123.89
2019-05-26T18:23:36.048Z,95130.05
2019-05-26T18:26:02.083Z,95125.34
2019-05-26T18:28:28.184Z,95138.13
2019-05-26T18:30:54.184Z,95143.47
2019-05-26T18:33:20.221Z,95145.91
2019-05-26T18:35:46.219Z,95153.20
2019-05-26T18:38:12.280Z,95156.70
2019-05-26T18:40:38.279Z,95156.17
2019-05-26T18:43:04.299Z,95155.25
2019-05-26T18:45:31.531Z,95154.53
2019-05-26T18:48:02.948Z,95151.38
2019-05-26T18:50:22.377Z,95156.70
2019-05-26T18:52:48.416Z,95154.03
2019-05-26T18:55:14.439Z,95158.95
2019-05-26T18:57:41.589Z,95165.11
2019-05-26T19:00:07.596Z,95161.61
2019-05-26T19:02:33.617Z,95161.61
2019-05-26T19:04:59.619Z,95163.36
2019-05-26T19:07:25.623Z,95164.70
2019-05-26T19:09:51.648Z,95168.16
2019-05-26T19:12:17.649Z,95171.23
2019-05-26T19:14:43.670Z,95175.45
2019-05-26T19:17:09.669Z,95180.48
2019-05-26T19:19:35.733Z,95178.31
2019-05-26T19:22:01.709Z,95180.98
2019-05-26T19:24:27.735Z,95186.73
2019-05-26T19:26:53.750Z,95198.10
2019-05-26T19:29:19.751Z,95202.93
2019-05-26T19:31:45.767Z,95202.81
2019-05-26T19:34:11.775Z,95199.65
2019-05-26T19:36:37.806Z,95200.28
2019-05-26T19:39:03.809Z,95195.95
2019-05-26T19:41:29.827Z,95202.11
2019-05-26T19:43:56.307Z,95206.61
2019-05-26T19:46:22.289Z,95201.69
2019-05-26T19:48:48.516Z,95197.28
2019-05-26T19:51:14.518Z,95197.70
2019-05-26T19:53:40.680Z,95207.14
2019-05-26T19:56:06.680Z,95197.90
2019-05-26T19:58:32.710Z,95190.82
2019-05-26T20:00:58.752Z,95187.66
2019-05-26T20:03:26.070Z,95182.94
2019-05-26T20:05:53.085Z,95179.03
2019-05-26T20:08:20.156Z,95177.20
2019-05-26T20:10:46.197Z,95173.70
2019-05-26T20:13:12.188Z,95172.78
2019-05-26T20:15:38.263Z,95174.62
2019-05-26T20:18:04.361Z,95170.63
2019-05-26T20:20:30.228Z,95172.07
2019-05-26T20:22:56.247Z,95173.41
2019-05-26T20:25:22.480Z,95174.81
2019-05-26T20:27:48.484Z,95174.02
2019-05-26T20:30:14.496Z,95176.69
2019-05-26T20:32:40.479Z,95184.68
2019-05-26T20:35:06.504Z,95179.97
2019-05-26T20:37:32.504Z,95183.84
2019-05-26T20:39:58.625Z,95186.21
2019-05-26T20:42:24.629Z,95196.03
2019-05-26T20:44:50.627Z,95201.78
2019-05-26T20:47:16.648Z,95199.20
2019-05-26T20:49:45.683Z,95204.53
2019-05-26T20:52:08.667Z,95206.28
2019-05-26T20:54:34.664Z,95201.98
2019-05-26T20:57:00.723Z,95201.06
2019-05-26T20:59:26.694Z,95204.23
2019-05-26T21:01:52.738Z,95210.59
2019-05-26T21:04:18.759Z,95206.06
2019-05-26T21:06:44.764Z,95204.73
2019-05-26T21:09:11.488Z,95211.92
2019-05-26T21:11:36.799Z,95204.02
2019-05-26T21:14:02.843Z,95212.42
2019-05-26T21:16:28.814Z,95217.25
2019-05-26T21:18:54.859Z,95210.27
2019-05-26T21:21:20.860Z,95204.02
2019-05-26T21:23:46.860Z,95206.68
2019-05-26T21:26:12.927Z,95205.34
2019-05-26T21:28:38.923Z,95202.80
2019-05-26T21:31:04.934Z,95207.18
2019-05-26T21:33:30.954Z,95196.94
2019-05-26T21:35:56.958Z,95196.52
2019-05-26T21:38:22.974Z,95196.14
2019-05-26T21:40:48.976Z,95186.48
2019-05-26T21:43:14.971Z,95188.73
2019-05-26T21:45:40.992Z,95185.16
2019-05-26T21:48:06.991Z,95188.73
2019-05-26T21:50:33.042Z,95189.27
2019-05-26T21:52:59.028Z,95194.18
2019-05-26T21:55:25.050Z,95183.52
2019-05-26T21:57:51.109Z,95189.34
2019-05-26T22:00:17.112Z,95190.18
2019-05-26T22:02:43.127Z,95191.93
2019-05-26T22:05:09.122Z,95195.51
2019-05-26T22:07:35.128Z,95196.84
2019-05-26T22:10:01.135Z,95202.67
2019-05-26T22:12:27.162Z,95192.43
2019-05-26T22:14:53.160Z,95189.34
2019-05-26T22:17:19.180Z,95184.14
2019-05-26T22:19:45.193Z,95187.22
2019-05-26T22:22:11.919Z,95177.89
2019-05-26T22:24:37.944Z,95184.14
2019-05-26T22:27:04.572Z,95188.55
2019-05-26T22:29:30.764Z,95191.21
2019-05-26T22:31:56.755Z,95188.55
2019-05-26T22:34:22.783Z,95190.38
2019-05-26T22:36:48.784Z,95191.30
2019-05-26T22:39:14.803Z,95188.22
2019-05-26T22:41:40.874Z,95182.89
2019-05-26T22:44:06.887Z,95178.39
2019-05-26T22:46:32.914Z,95174.81
2019-05-26T22:48:59.099Z,95165.16
2019-05-26T22:51:25.204Z,95162.91
2019-05-26T22:53:51.317Z,95165.58
2019-05-26T22:56:17.320Z,95161.08
2019-05-26T22:58:43.333Z,95162.11
2019-05-26T23:01:09.447Z,95170.40
2019-05-26T23:03:35.393Z,95173.48
2019-05-26T23:06:01.425Z,95170.40
2019-05-26T23:08:27.407Z,95174.39
2019-05-26T23:10:53.429Z,95178.39
2019-05-26T23:13:19.424Z,95176.23
2019-05-26T23:15:45.457Z,95183.80
2019-05-26T23:18:11.470Z,95181.05
2019-05-26T23:20:37.474Z,95179.31
2019-05-26T23:23:03.493Z,95176.23
2019-05-26T23:25:29.498Z,95175.81
2019-05-26T23:27:55.551Z,95177.98
2019-05-26T23:30:21.575Z,95166.91
2019-05-26T23:32:47.568Z,95169.98
2019-05-26T23:35:13.585Z,95173.56
2019-05-26T23:37:39.576Z,95174.89
2019-05-26T23:40:05.587Z,95169.16
2019-05-26T23:42:31.609Z,95168.66
2019-05-26T23:44:57.612Z,95170.90
2019-05-26T23:47:23.634Z,95164.66
2019-05-26T23:49:49.637Z,95163.83
2019-05-26T23:52:19.223Z,95167.82
2019-05-26T23:54:41.661Z,95165.98
2019-05-26T23:57:07.675Z,95168.66
2019-05-26T23:59:33.770Z,95168.66
